createdAt,value
2018-08-24T00:10:02.893Z,0
2018-08-24T00:20:17.378Z,0
2018-08-24T00:30:31.735Z,0
2018-08-24T00:40:46.881Z,0
2018-08-24T00:51:00.670Z,0
2018-08-24T01:01:14.667Z,0
2018-08-24T01:11:29.324Z,0
2018-08-24T01:21:44.217Z,0
2018-08-24T01:31:58.320Z,0
2018-08-24T01:42:12.494Z,0
2018-08-24T01:52:27.557Z,0
2018-08-24T02:02:43.134Z,0
2018-08-24T02:12:58.685Z,0
2018-08-24T02:23:12.809Z,0
2018-08-24T02:33:28.419Z,0
2018-08-24T02:43:43.739Z,0
2018-08-24T02:53:58.123Z,0
2018-08-24T03:04:12.756Z,0
2018-08-24T03:14:27.420Z,0
2018-08-24T03:24:42.363Z,0
2018-08-24T03:34:56.396Z,0
2018-08-24T03:45:11.335Z,0
2018-08-24T03:55:25.690Z,0
2018-08-24T04:05:39.585Z,0
2018-08-24T04:15:54.877Z,0
2018-08-24T04:26:10.212Z,0
2018-08-24T04:36:24.047Z,20
2018-08-24T04:46:38.391Z,30
2018-08-24T04:56:53.614Z,35
2018-08-24T05:07:08.809Z,55
2018-08-24T05:17:22.558Z,70
2018-08-24T05:27:37.039Z,85
2018-08-24T05:37:51.378Z,110
2018-08-24T05:48:06.309Z,120
2018-08-24T05:58:20.482Z,140
2018-08-24T06:08:35.162Z,205
2018-08-24T06:18:49.418Z,65
2018-08-24T06:29:04.792Z,95
2018-08-24T06:39:19.027Z,165
2018-08-24T06:49:34.572Z,310
2018-08-24T06:59:49.455Z,115
2018-08-24T07:10:04.235Z,105
2018-08-24T07:20:18.956Z,265
2018-08-24T07:30:33.788Z,325
2018-08-24T07:40:49.569Z,255
2018-08-24T07:51:05.335Z,215
2018-08-24T08:01:20.634Z,185
2018-08-24T08:11:35.640Z,310
2018-08-24T08:21:49.943Z,260
2018-08-24T08:32:05.125Z,435
2018-08-24T08:42:20.882Z,590
2018-08-24T08:52:36.509Z,875
2018-08-24T09:02:50.830Z,875
2018-08-24T09:13:05.999Z,1105
2018-08-24T09:23:21.406Z,585
2018-08-24T09:33:37.076Z,300
2018-08-24T09:43:52.598Z,690
2018-08-24T09:54:07.938Z,1640
2018-08-24T10:04:22.868Z,1760
2018-08-24T10:14:37.283Z,525
2018-08-24T10:24:51.821Z,1610
2018-08-24T10:35:07.067Z,430
2018-08-24T10:45:21.913Z,1610
2018-08-24T10:55:37.153Z,1455
2018-08-24T11:05:52.165Z,1310
2018-08-24T11:16:08.081Z,1290
2018-08-24T11:26:23.447Z,1345
2018-08-24T11:36:38.304Z,585
2018-08-24T11:46:52.834Z,2355
2018-08-24T11:57:08.455Z,2095
2018-08-24T12:07:23.723Z,2265
2018-08-24T12:17:39.572Z,610
2018-08-24T12:27:54.240Z,820
2018-08-24T12:38:08.191Z,1900
2018-08-24T12:48:23.348Z,1460
2018-08-24T12:58:39.002Z,685
2018-08-24T13:08:54.362Z,1905
2018-08-24T13:19:09.322Z,1305
2018-08-24T13:29:23.845Z,690
2018-08-24T13:39:39.557Z,740
2018-08-24T13:49:54.548Z,1365
2018-08-24T14:00:10.170Z,1135
2018-08-24T14:10:24.767Z,910
2018-08-24T14:20:39.992Z,885
2018-08-24T14:30:53.881Z,870
2018-08-24T14:41:07.847Z,765
2018-08-24T14:51:22.016Z,680
2018-08-24T15:01:37.718Z,655
2018-08-24T15:11:52.826Z,350
2018-08-24T15:22:07.687Z,485
2018-08-24T15:32:21.746Z,495
2018-08-24T15:42:37.502Z,370
2018-08-24T15:52:52.937Z,255
2018-08-24T16:03:07.862Z,260
2018-08-24T16:13:22.724Z,235
2018-08-24T16:23:38.451Z,215
2018-08-24T16:33:54.312Z,205
2018-08-24T16:44:08.465Z,185
2018-08-24T16:54:23.700Z,155
2018-08-24T17:04:37.636Z,135
2018-08-24T17:14:52.296Z,130
2018-08-24T17:25:06.119Z,110
2018-08-24T17:35:20.673Z,70
2018-08-24T17:45:34.680Z,55
2018-08-24T17:55:49.056Z,45
2018-08-24T18:06:04.698Z,40
2018-08-24T18:16:18.658Z,25
2018-08-24T18:26:33.387Z,10
2018-08-24T18:36:48.687Z,5
2018-08-24T18:47:03.091Z,0
2018-08-24T18:57:17.626Z,0
2018-08-24T19:07:32.154Z,0
2018-08-24T19:17:47.675Z,0
2018-08-24T19:28:02.288Z,0
2018-08-24T19:38:17.752Z,0
2018-08-24T19:48:31.707Z,0
2018-08-24T19:58:46.483Z,0
2018-08-24T20:09:00.708Z,0
2018-08-24T20:19:14.812Z,0
2018-08-24T20:29:28.555Z,0
2018-08-24T20:39:43.974Z,0
2018-08-24T20:49:58.464Z,0
2018-08-24T21:00:14.185Z,0
2018-08-24T21:10:28.093Z,0
2018-08-24T21:20:41.841Z,0
2018-08-24T21:30:56.951Z,0
2018-08-24T21:41:12.150Z,0
2018-08-24T21:51:27.503Z,0
2018-08-24T22:01:41.990Z,0
2018-08-24T22:11:57.505Z,0
2018-08-24T22:22:11.806Z,0
2018-08-24T22:32:26.935Z,0
2018-08-24T22:42:41.201Z,0
2018-08-24T22:52:56.154Z,0
2018-08-24T23:03:09.988Z,0
2018-08-24T23:13:24.991Z,0
2018-08-24T23:23:40.569Z,0
2018-08-24T23:33:55.908Z,0
2018-08-24T23:44:09.771Z,0
2018-08-24T23:54:23.788Z,0
